^^
Saratoga-Weather Station Historical Data
Daily Summary for September 25, 2022 Units:  Metric    English   Both
Daily Weekly Monthly Yearly Custom
  High: Low: Average:
Temperature: 16.1 °C 8.5 °C 13.5 °C
Dew Point: 11.4 °C 6.5 °C 9.7 °C
Humidity: 88% 60% 78%
Wind Speed: 13km/h 0km/h 2.9km/h
Wind Gust: 16.1km/h - -
Wind- - West
Pressure: 1012.9 hPa 1011.5 hPa -
Precipitation: 0.0 mm    
Historical Graphs
 
 
Tabular Data for September 25, 2022
Time Temperature Dew Point Pressure Wind Wind Speed Wind Gust Humidity Rainfall Rate (Hourly) solar
00:02 13.7 °C 10.7 °C 1011.9 hPa West 4.7 km/h 6.4 km/h 82% 0.0 mm 0 W/m2
00:07 13.6 °C 10.6 °C 1012.2 hPa WSW 3.2 km/h 4.8 km/h 82% 0.0 mm 0 W/m2
00:12 13.5 °C 10.5 °C 1012.2 hPa West 3.2 km/h 4.8 km/h 82% 0.0 mm 0 W/m2
00:17 13.4 °C 10.4 °C 1012.2 hPa WSW 3.2 km/h 4.8 km/h 82% 0.0 mm 0 W/m2
00:22 13.4 °C 10.6 °C 1012.2 hPa West 1.4 km/h 6.4 km/h 83% 0.0 mm 0 W/m2
00:27 13.3 °C 10.5 °C 1012.2 hPa West 4.7 km/h 6.4 km/h 83% 0.0 mm 0 W/m2
00:32 13.3 °C 10.5 °C 1012.2 hPa West 1.4 km/h 6.4 km/h 83% 0.0 mm 0 W/m2
00:37 13.3 °C 10.5 °C 1012.2 hPa West 3.2 km/h 4.8 km/h 83% 0.0 mm 0 W/m2
00:42 13.3 °C 10.5 °C 1011.9 hPa Calm   3.2 km/h 83% 0.0 mm 0 W/m2
00:47 13.2 °C 10.4 °C 1011.9 hPa West 3.2 km/h 4.8 km/h 83% 0.0 mm 0 W/m2
00:52 13.2 °C 10.4 °C 1011.9 hPa WSW 4.7 km/h 4.8 km/h 83% 0.0 mm 0 W/m2
00:57 13.2 °C 10.4 °C 1012.2 hPa West 6.4 km/h 6.4 km/h 83% 0.0 mm 0 W/m2
01:02 13.2 °C 10.4 °C 1012.2 hPa WSW 3.2 km/h 8 km/h 83% 0.0 mm 0 W/m2
01:07 13.1 °C 10.3 °C 1012.2 hPa West 4.7 km/h 4.8 km/h 83% 0.0 mm 0 W/m2
01:12 13.1 °C 10.3 °C 1011.9 hPa West 3.2 km/h 8 km/h 83% 0.0 mm 0 W/m2
01:17 13.1 °C 10.3 °C 1011.9 hPa West 3.2 km/h 4.8 km/h 83% 0.0 mm 0 W/m2
01:22 13.1 °C 10.3 °C 1011.9 hPa WNW 1.4 km/h 6.4 km/h 83% 0.0 mm 0 W/m2
01:27 13.1 °C 10.3 °C 1011.9 hPa WNW 4.7 km/h 6.4 km/h 83% 0.0 mm 0 W/m2
01:32 13.1 °C 10.5 °C 1011.9 hPa West 4.7 km/h 6.4 km/h 84% 0.0 mm 0 W/m2
01:37 13.1 °C 10.5 °C 1011.9 hPa WSW 3.2 km/h 4.8 km/h 84% 0.0 mm 0 W/m2
01:42 13.1 °C 10.5 °C 1011.9 hPa West 3.2 km/h 4.8 km/h 84% 0.0 mm 0 W/m2
01:47 13.1 °C 10.6 °C 1011.9 hPa WNW 3.2 km/h 4.8 km/h 85% 0.0 mm 0 W/m2
01:52 13 °C 10.5 °C 1012.2 hPa West 4.7 km/h 9.7 km/h 85% 0.0 mm 0 W/m2
01:57 12.9 °C 10.4 °C 1012.2 hPa West 3.2 km/h 4.8 km/h 85% 0.0 mm 0 W/m2
02:02 12.9 °C 10.4 °C 1012.2 hPa West 3.2 km/h 4.8 km/h 85% 0.0 mm 0 W/m2
02:07 12.9 °C 10.4 °C 1012.2 hPa WNW 3.2 km/h 4.8 km/h 85% 0.0 mm 0 W/m2
02:12 12.9 °C 10.6 °C 1012.2 hPa WNW 4.7 km/h 8 km/h 86% 0.0 mm 0 W/m2
02:17 12.8 °C 10.5 °C 1012.2 hPa West 3.2 km/h 6.4 km/h 86% 0.0 mm 0 W/m2
02:22 12.8 °C 10.5 °C 1012.2 hPa West 3.2 km/h 9.7 km/h 86% 0.0 mm 0 W/m2
02:27 12.8 °C 10.5 °C 1012.2 hPa West 4.7 km/h 6.4 km/h 86% 0.0 mm 0 W/m2
02:32 12.8 °C 10.5 °C 1012.2 hPa WSW 3.2 km/h 6.4 km/h 86% 0.0 mm 0 W/m2
02:37 12.8 °C 10.5 °C 1012.2 hPa West 1.4 km/h 6.4 km/h 86% 0.0 mm 0 W/m2
02:42 12.8 °C 10.5 °C 1012.2 hPa WSW 3.2 km/h 6.4 km/h 86% 0.0 mm 0 W/m2
02:47 12.8 °C 10.5 °C 1012.2 hPa West 1.4 km/h 4.8 km/h 86% 0.0 mm 0 W/m2
02:52 12.8 °C 10.5 °C 1012.2 hPa West 1.4 km/h 4.8 km/h 86% 0.0 mm 0 W/m2
02:57 12.8 °C 10.5 °C 1012.2 hPa Calm   3.2 km/h 86% 0.0 mm 0 W/m2
03:02 12.8 °C 10.5 °C 1012.2 hPa West 1.4 km/h 3.2 km/h 86% 0.0 mm 0 W/m2
03:07 12.8 °C 10.5 °C 1011.9 hPa West 1.4 km/h 3.2 km/h 86% 0.0 mm 0 W/m2
03:12 12.7 °C 10.4 °C 1011.9 hPa West 3.2 km/h 4.8 km/h 86% 0.0 mm 0 W/m2
03:17 12.7 °C 10.4 °C 1011.9 hPa West 1.4 km/h 4.8 km/h 86% 0.0 mm 0 W/m2
03:22 12.7 °C 10.4 °C 1011.9 hPa West 4.7 km/h 6.4 km/h 86% 0.0 mm 0 W/m2
03:27 12.7 °C 10.4 °C 1011.9 hPa West 6.4 km/h 6.4 km/h 86% 0.0 mm 0 W/m2
03:32 12.7 °C 10.4 °C 1011.9 hPa West 6.4 km/h 6.4 km/h 86% 0.0 mm 0 W/m2
03:37 12.7 °C 10.4 °C 1011.9 hPa West 3.2 km/h 6.4 km/h 86% 0.0 mm 0 W/m2
03:42 12.7 °C 10.4 °C 1011.9 hPa West 1.4 km/h 4.8 km/h 86% 0.0 mm 0 W/m2
03:47 12.7 °C 10.4 °C 1011.9 hPa West 1.4 km/h 6.4 km/h 86% 0.0 mm 0 W/m2
03:52 12.7 °C 10.4 °C 1011.9 hPa West 3.2 km/h 3.2 km/h 86% 0.0 mm 0 W/m2
03:57 12.7 °C 10.4 °C 1011.9 hPa West 3.2 km/h 4.8 km/h 86% 0.0 mm 0 W/m2
04:02 12.7 °C 10.4 °C 1011.9 hPa West 3.2 km/h 6.4 km/h 86% 0.0 mm 0 W/m2
04:07 12.7 °C 10.4 °C 1011.9 hPa West 4.7 km/h 4.8 km/h 86% 0.0 mm 0 W/m2
04:12 12.7 °C 10.4 °C 1011.9 hPa West 3.2 km/h 4.8 km/h 86% 0.0 mm 0 W/m2
04:17 12.7 °C 10.4 °C 1011.9 hPa WNW 3.2 km/h 6.4 km/h 86% 0.0 mm 0 W/m2
04:22 12.7 °C 10.4 °C 1011.9 hPa WNW 3.2 km/h 4.8 km/h 86% 0.0 mm 0 W/m2
04:27 12.7 °C 10.4 °C 1011.9 hPa West 4.7 km/h 4.8 km/h 86% 0.0 mm 0 W/m2
04:32 12.7 °C 10.4 °C 1011.9 hPa West 4.7 km/h 4.8 km/h 86% 0.0 mm 0 W/m2
04:37 12.7 °C 10.4 °C 1011.9 hPa West 3.2 km/h 3.2 km/h 86% 0.0 mm 0 W/m2
04:42 12.7 °C 10.4 °C 1011.9 hPa West 3.2 km/h 3.2 km/h 86% 0.0 mm 0 W/m2
04:47 12.7 °C 10.4 °C 1011.9 hPa West 3.2 km/h 4.8 km/h 86% 0.0 mm 0 W/m2
04:52 12.7 °C 10.4 °C 1011.9 hPa WNW 3.2 km/h 6.4 km/h 86% 0.0 mm 0 W/m2
04:57 12.7 °C 10.4 °C 1011.9 hPa West 3.2 km/h 4.8 km/h 86% 0.0 mm 0 W/m2
05:02 12.7 °C 10.4 °C 1011.9 hPa West 3.2 km/h 6.4 km/h 86% 0.0 mm 0 W/m2
05:07 12.7 °C 10.4 °C 1011.9 hPa NW 1.4 km/h 6.4 km/h 86% 0.0 mm 0 W/m2
05:12 12.7 °C 10.4 °C 1011.9 hPa NW 3.2 km/h 3.2 km/h 86% 0.0 mm 0 W/m2
05:17 12.7 °C 10.4 °C 1011.9 hPa WNW 3.2 km/h 3.2 km/h 86% 0.0 mm 0 W/m2
05:22 12.7 °C 10.4 °C 1011.9 hPa WNW 1.4 km/h 4.8 km/h 86% 0.0 mm 0 W/m2
05:27 12.7 °C 10.4 °C 1011.5 hPa Calm   4.8 km/h 86% 0.0 mm 0 W/m2
05:32 12.7 °C 10.4 °C 1011.9 hPa West 4.7 km/h 4.8 km/h 86% 0.0 mm 0 W/m2
05:37 12.7 °C 10.4 °C 1011.5 hPa West 3.2 km/h 6.4 km/h 86% 0.0 mm 0 W/m2
05:42 12.6 °C 10.3 °C 1011.5 hPa WNW 3.2 km/h 4.8 km/h 86% 0.0 mm 0 W/m2
05:47 12.4 °C 10.1 °C 1011.9 hPa West 3.2 km/h 6.4 km/h 86% 0.0 mm 0 W/m2
05:52 12.4 °C 10.3 °C 1011.9 hPa WSW 4.7 km/h 11.3 km/h 87% 0.0 mm 0 W/m2
05:57 12.3 °C 10.2 °C 1011.9 hPa WNW 4.7 km/h 4.8 km/h 87% 0.0 mm 0 W/m2
06:02 12.2 °C 10.1 °C 1011.9 hPa West 1.4 km/h 6.4 km/h 87% 0.0 mm 0 W/m2
06:07 12.2 °C 10.3 °C 1011.9 hPa West 3.2 km/h 4.8 km/h 88% 0.0 mm 0 W/m2
06:12 12.2 °C 10.3 °C 1011.9 hPa West 3.2 km/h 6.4 km/h 88% 0.0 mm 0 W/m2
06:17 12.2 °C 10.3 °C 1011.9 hPa West 6.4 km/h 9.7 km/h 88% 0.0 mm 0 W/m2
06:22 12.2 °C 10.3 °C 1011.9 hPa West 6.4 km/h 6.4 km/h 88% 0.0 mm 0 W/m2
06:27 12.3 °C 10.4 °C 1011.9 hPa West 6.4 km/h 6.4 km/h 88% 0.0 mm 0 W/m2
06:32 12.3 °C 10.4 °C 1011.5 hPa WNW 4.7 km/h 6.4 km/h 88% 0.0 mm 0 W/m2
06:37 12.4 °C 10.5 °C 1011.9 hPa WSW 3.2 km/h 9.7 km/h 88% 0.0 mm 0 W/m2
06:42 12.5 °C 10.6 °C 1011.9 hPa West 3.2 km/h 6.4 km/h 88% 0.0 mm 0 W/m2
06:47 12.6 °C 10.5 °C 1011.9 hPa West 4.7 km/h 4.8 km/h 87% 0.0 mm 0 W/m2
06:52 12.6 °C 10.5 °C 1011.9 hPa West 1.4 km/h 6.4 km/h 87% 0.0 mm 0 W/m2
06:57 12.6 °C 10.5 °C 1011.9 hPa WNW 1.4 km/h 6.4 km/h 87% 0.0 mm 0 W/m2
07:03 12.6 °C 10.5 °C 1011.9 hPa West 3.2 km/h 9.7 km/h 87% 0.0 mm 0 W/m2
07:08 12.6 °C 10.5 °C 1011.9 hPa WNW 4.7 km/h 9.7 km/h 87% 0.0 mm 0 W/m2
07:13 12.7 °C 10.6 °C 1011.9 hPa West 3.2 km/h 6.4 km/h 87% 0.0 mm 0 W/m2
07:18 12.7 °C 10.6 °C 1011.9 hPa WNW 4.7 km/h 6.4 km/h 87% 0.0 mm 0 W/m2
07:23 12.7 °C 10.6 °C 1011.9 hPa West 6.4 km/h 6.4 km/h 87% 0.0 mm 0 W/m2
07:28 12.7 °C 10.6 °C 1011.9 hPa WNW 3.2 km/h 4.8 km/h 87% 0.0 mm 0 W/m2
07:33 12.8 °C 10.5 °C 1011.9 hPa West 4.7 km/h 4.8 km/h 86% 0.0 mm 0 W/m2
07:38 12.8 °C 10.5 °C 1011.9 hPa West 1.4 km/h 4.8 km/h 86% 0.0 mm 5 W/m2
07:43 12.8 °C 10.5 °C 1011.9 hPa NW 4.7 km/h 14.5 km/h 86% 0.0 mm 7 W/m2
07:48 12.8 °C 10.5 °C 1011.9 hPa NW 3.2 km/h 6.4 km/h 86% 0.0 mm 11 W/m2
07:53 12.8 °C 10.5 °C 1011.9 hPa NNW 1.4 km/h 14.5 km/h 86% 0.0 mm 12 W/m2
07:58 12.8 °C 10.5 °C 1012.2 hPa WNW 1.4 km/h 3.2 km/h 86% 0.0 mm 14 W/m2
08:03 12.9 °C 10.6 °C 1012.2 hPa West 4.7 km/h 9.7 km/h 86% 0.0 mm 14 W/m2
08:08 12.9 °C 10.6 °C 1012.2 hPa West 9.7 km/h 9.7 km/h 86% 0.0 mm 16 W/m2
08:13 13 °C 10.5 °C 1012.2 hPa WNW 3.2 km/h 8 km/h 85% 0.0 mm 21 W/m2
08:18 13 °C 10.5 °C 1012.2 hPa Calm   4.8 km/h 85% 0.0 mm 18 W/m2
08:23 13.1 °C 10.6 °C 1012.2 hPa West 3.2 km/h 8 km/h 85% 0.0 mm 19 W/m2
08:28 13.1 °C 10.6 °C 1012.2 hPa WNW 3.2 km/h 9.7 km/h 85% 0.0 mm 23 W/m2
08:33 13.1 °C 10.6 °C 1012.2 hPa WNW 1.4 km/h 3.2 km/h 85% 0.0 mm 25 W/m2
08:38 13.1 °C 10.6 °C 1012.2 hPa WSW 4.7 km/h 6.4 km/h 85% 0.0 mm 33 W/m2
08:43 13.1 °C 10.6 °C 1012.2 hPa WNW 4.7 km/h 6.4 km/h 85% 0.0 mm 37 W/m2
08:48 13.1 °C 10.6 °C 1012.2 hPa WNW 1.4 km/h 3.2 km/h 85% 0.0 mm 33 W/m2
08:53 13.1 °C 10.6 °C 1012.2 hPa Calm   6.4 km/h 85% 0.0 mm 32 W/m2
08:58 13.1 °C 10.6 °C 1012.2 hPa WSW 6.4 km/h 6.4 km/h 85% 0.0 mm 39 W/m2
09:03 13.1 °C 10.6 °C 1012.2 hPa West 3.2 km/h 6.4 km/h 85% 0.0 mm 51 W/m2
09:08 13.2 °C 10.7 °C 1012.2 hPa WNW 4.7 km/h 6.4 km/h 85% 0.0 mm 60 W/m2
09:13 13.2 °C 10.7 °C 1012.2 hPa West 4.7 km/h 4.8 km/h 85% 0.0 mm 60 W/m2
09:18 13.3 °C 10.8 °C 1012.2 hPa WNW 1.4 km/h 3.2 km/h 85% 0.0 mm 77 W/m2
09:23 13.3 °C 10.8 °C 1012.2 hPa West 4.7 km/h 4.8 km/h 85% 0.0 mm 76 W/m2
09:28 13.4 °C 10.8 °C 1012.5 hPa NW 1.4 km/h 4.8 km/h 84% 0.0 mm 77 W/m2
09:33 13.5 °C 10.8 °C 1012.5 hPa Calm   4.8 km/h 84% 0.0 mm 81 W/m2
09:38 13.6 °C 11.1 °C 1012.5 hPa NNW 3.2 km/h 4.8 km/h 85% 0.0 mm 76 W/m2
09:43 13.7 °C 11 °C 1012.5 hPa NNW 1.4 km/h 6.4 km/h 84% 0.0 mm 63 W/m2
09:48 13.8 °C 11 °C 1012.2 hPa NNW 3.2 km/h 4.8 km/h 83% 0.0 mm 91 W/m2
09:53 13.9 °C 11.1 °C 1012.2 hPa WNW 1.4 km/h 12.9 km/h 83% 0.0 mm 102 W/m2
09:58 14 °C 11 °C 1012.5 hPa NW 1.4 km/h 6.4 km/h 82% 0.0 mm 97 W/m2
10:03 14.1 °C 11.1 °C 1012.5 hPa North 3.2 km/h 12.9 km/h 82% 0.0 mm 91 W/m2
10:08 14.1 °C 11.1 °C 1012.5 hPa WNW 4.7 km/h 9.7 km/h 82% 0.0 mm 72 W/m2
10:13 14.1 °C 11.1 °C 1012.5 hPa West 1.4 km/h 11.3 km/h 82% 0.0 mm 88 W/m2
10:18 14.1 °C 11.1 °C 1012.2 hPa West 6.4 km/h 6.4 km/h 82% 0.0 mm 151 W/m2
10:23 14.2 °C 11.2 °C 1012.2 hPa West 11.1 km/h 11.3 km/h 82% 0.0 mm 149 W/m2
10:28 14.2 °C 11 °C 1012.5 hPa WNW 6.4 km/h 11.3 km/h 81% 0.0 mm 162 W/m2
10:33 14.2 °C 11 °C 1012.5 hPa NW 3.2 km/h 8 km/h 81% 0.0 mm 183 W/m2
10:38 14.3 °C 11.1 °C 1012.5 hPa WNW 11.1 km/h 16.1 km/h 81% 0.0 mm 160 W/m2
10:43 14.4 °C 11 °C 1012.2 hPa WNW 1.4 km/h 9.7 km/h 80% 0.0 mm 174 W/m2
10:48 14.4 °C 11 °C 1012.2 hPa ENE 1.4 km/h 6.4 km/h 80% 0.0 mm 190 W/m2
10:53 14.6 °C 11.4 °C 1012.2 hPa WSW 3.2 km/h 11.3 km/h 81% 0.0 mm 188 W/m2
10:58 14.7 °C 11.3 °C 1012.5 hPa NW 1.4 km/h 3.2 km/h 80% 0.0 mm 155 W/m2
11:03 14.7 °C 11.1 °C 1012.2 hPa WNW 3.2 km/h 6.4 km/h 79% 0.0 mm 114 W/m2
11:08 14.8 °C 11.2 °C 1012.5 hPa West 4.7 km/h 4.8 km/h 79% 0.0 mm 83 W/m2
11:13 14.7 °C 11.1 °C 1012.5 hPa WNW 4.7 km/h 11.3 km/h 79% 0.0 mm 91 W/m2
11:18 14.7 °C 11.1 °C 1012.5 hPa NNW 6.4 km/h 12.9 km/h 79% 0.0 mm 109 W/m2
11:23 14.7 °C 11.1 °C 1012.5 hPa NNW 1.4 km/h 11.3 km/h 79% 0.0 mm 95 W/m2
11:28 14.6 °C 11 °C 1012.5 hPa NW 1.4 km/h 6.4 km/h 79% 0.0 mm 104 W/m2
11:33 14.6 °C 11 °C 1012.5 hPa NW 4.7 km/h 9.7 km/h 79% 0.0 mm 153 W/m2
11:38 14.6 °C 11 °C 1012.5 hPa West 4.7 km/h 9.7 km/h 79% 0.0 mm 142 W/m2
11:43 14.7 °C 11.1 °C 1012.5 hPa NNW 3.2 km/h 6.4 km/h 79% 0.0 mm 125 W/m2
11:48 14.7 °C 11.1 °C 1012.5 hPa WSW 3.2 km/h 16.1 km/h 79% 0.0 mm 188 W/m2
11:53 14.7 °C 11.1 °C 1012.5 hPa East 4.7 km/h 12.9 km/h 79% 0.0 mm 202 W/m2
11:58 14.8 °C 11 °C 1012.5 hPa NW 1.4 km/h 16.1 km/h 78% 0.0 mm 211 W/m2
12:03 14.9 °C 11.1 °C 1012.5 hPa West 6.4 km/h 9.7 km/h 78% 0.0 mm 241 W/m2
12:08 14.9 °C 11.1 °C 1012.9 hPa North 6.4 km/h 8 km/h 78% 0.0 mm 128 W/m2
12:13 14.9 °C 11.1 °C 1012.9 hPa North 3.2 km/h 11.3 km/h 78% 0.0 mm 130 W/m2
12:18 14.9 °C 11.1 °C 1012.5 hPa NW 3.2 km/h 3.2 km/h 78% 0.0 mm 149 W/m2
12:23 14.9 °C 10.9 °C 1012.5 hPa NE 6.4 km/h 6.4 km/h 77% 0.0 mm 195 W/m2
12:28 15 °C 11 °C 1012.5 hPa WSW 6.4 km/h 12.9 km/h 77% 0.0 mm 151 W/m2
12:33 14.9 °C 10.9 °C 1012.5 hPa Calm   4.8 km/h 77% 0.0 mm 58 W/m2
12:38 14.8 °C 10.8 °C 1012.5 hPa NNE 1.4 km/h 6.4 km/h 77% 0.0 mm 35 W/m2
12:43 14.8 °C 11 °C 1012.5 hPa WNW 1.4 km/h 6.4 km/h 78% 0.0 mm 40 W/m2
12:48 14.7 °C 10.9 °C 1012.5 hPa NNW 3.2 km/h 9.7 km/h 78% 0.0 mm 47 W/m2
12:53 14.7 °C 11.1 °C 1012.5 hPa NW 1.4 km/h 4.8 km/h 79% 0.0 mm 51 W/m2
12:58 14.6 °C 11 °C 1012.5 hPa NNW 3.2 km/h 9.7 km/h 79% 0.0 mm 74 W/m2
13:03 14.6 °C 11 °C 1012.5 hPa WNW 3.2 km/h 3.2 km/h 79% 0.0 mm 118 W/m2
13:08 14.7 °C 11.1 °C 1012.5 hPa West 6.4 km/h 8 km/h 79% 0.0 mm 125 W/m2
13:13 14.7 °C 11.1 °C 1012.5 hPa WNW 3.2 km/h 3.2 km/h 79% 0.0 mm 130 W/m2
13:18 14.8 °C 11 °C 1012.9 hPa West 9.7 km/h 12.9 km/h 78% 0.0 mm 130 W/m2
13:23 14.8 °C 10.8 °C 1012.9 hPa WNW 3.2 km/h 4.8 km/h 77% 0.0 mm 130 W/m2
13:28 14.9 °C 10.9 °C 1012.5 hPa West 4.7 km/h 4.8 km/h 77% 0.0 mm 111 W/m2
13:33 15 °C 11 °C 1012.5 hPa WNW 11.1 km/h 12.9 km/h 77% 0.0 mm 83 W/m2
13:38 15.1 °C 10.9 °C 1012.9 hPa NW 3.2 km/h 6.4 km/h 76% 0.0 mm 97 W/m2
13:43 15.1 °C 11.1 °C 1012.9 hPa South 12.9 km/h 12.9 km/h 77% 0.0 mm 118 W/m2
13:48 15.1 °C 10.9 °C 1012.9 hPa NNW 3.2 km/h 6.4 km/h 76% 0.0 mm 107 W/m2
13:53 15 °C 11 °C 1012.9 hPa WNW 4.7 km/h 8 km/h 77% 0.0 mm 90 W/m2
13:58 14.9 °C 10.7 °C 1012.9 hPa West 4.7 km/h 11.3 km/h 76% 0.0 mm 81 W/m2
14:03 14.8 °C 10.6 °C 1012.9 hPa Calm   4.8 km/h 76% 0.0 mm 84 W/m2
14:08 14.8 °C 10.6 °C 1012.9 hPa East 1.4 km/h 3.2 km/h 76% 0.0 mm 104 W/m2
14:13 14.9 °C 10.5 °C 1012.9 hPa Calm   4.8 km/h 75% 0.0 mm 109 W/m2
14:18 14.9 °C 10.7 °C 1012.9 hPa Calm   4.8 km/h 76% 0.0 mm 139 W/m2
14:23 15 °C 10.6 °C 1012.9 hPa NW 1.4 km/h 8 km/h 75% 0.0 mm 176 W/m2
14:28 15.1 °C 10.7 °C 1012.9 hPa WNW 3.2 km/h 4.8 km/h 75% 0.0 mm 204 W/m2
14:33 15.2 °C 10.6 °C 1012.9 hPa East 3.2 km/h 6.4 km/h 74% 0.0 mm 149 W/m2
14:38 15.3 °C 10.5 °C 1012.9 hPa WSW 13 km/h 14.5 km/h 73% 0.0 mm 63 W/m2
14:43 15.1 °C 10.3 °C 1012.9 hPa WNW 9.7 km/h 14.5 km/h 73% 0.0 mm 69 W/m2
14:48 14.9 °C 10.3 °C 1012.9 hPa NE 4.7 km/h 14.5 km/h 74% 0.0 mm 56 W/m2
14:53 14.9 °C 10.5 °C 1012.9 hPa NNW 1.4 km/h 8 km/h 75% 0.0 mm 63 W/m2
14:58 14.8 °C 10.4 °C 1012.9 hPa Calm   14.5 km/h 75% 0.0 mm 74 W/m2
15:03 14.8 °C 10.6 °C 1012.9 hPa ENE 7.9 km/h 8 km/h 76% 0.0 mm 100 W/m2
15:08 14.7 °C 10.3 °C 1012.9 hPa SE 1.4 km/h 3.2 km/h 75% 0.0 mm 130 W/m2
15:13 14.8 °C 10.2 °C 1012.5 hPa Calm   6.4 km/h 74% 0.0 mm 158 W/m2
15:18 14.8 °C 10.2 °C 1012.5 hPa NW 4.7 km/h 6.4 km/h 74% 0.0 mm 165 W/m2
15:23 14.9 °C 10.1 °C 1012.9 hPa NNW 1.4 km/h 6.4 km/h 73% 0.0 mm 167 W/m2
15:28 15.1 °C 10.1 °C 1012.5 hPa NW 3.2 km/h 3.2 km/h 72% 0.0 mm 209 W/m2
15:33 15.2 °C 10.2 °C 1012.5 hPa East 6.4 km/h 9.7 km/h 72% 0.0 mm 258 W/m2
15:38 15.4 °C 10 °C 1012.5 hPa NNW 1.4 km/h 4.8 km/h 70% 0.0 mm 338 W/m2
15:43 15.7 °C 10.2 °C 1012.5 hPa ENE 4.7 km/h 6.4 km/h 70% 0.0 mm 278 W/m2
15:48 15.8 °C 10.1 °C 1012.5 hPa NE 3.2 km/h 6.4 km/h 69% 0.0 mm 225 W/m2
15:53 15.9 °C 9.6 °C 1012.5 hPa SE 4.7 km/h 4.8 km/h 66% 0.0 mm 188 W/m2
15:58 15.9 °C 9.3 °C 1012.5 hPa NE 6.4 km/h 8 km/h 65% 0.0 mm 181 W/m2
16:03 15.8 °C 9.2 °C 1012.5 hPa NE 3.2 km/h 11.3 km/h 65% 0.0 mm 260 W/m2
16:08 15.9 °C 9.3 °C 1012.5 hPa North 1.4 km/h 4.8 km/h 65% 0.0 mm 204 W/m2
16:13 16 °C 9.2 °C 1012.5 hPa WNW 1.4 km/h 8 km/h 64% 0.0 mm 149 W/m2
16:18 16 °C 9.2 °C 1012.2 hPa SE 1.4 km/h 4.8 km/h 64% 0.0 mm 127 W/m2
16:23 15.9 °C 9.1 °C 1012.2 hPa ENE 1.4 km/h 3.2 km/h 64% 0.0 mm 155 W/m2
16:28 15.9 °C 9.1 °C 1012.2 hPa ENE 3.2 km/h 9.7 km/h 64% 0.0 mm 200 W/m2
16:33 16 °C 8.7 °C 1012.2 hPa West 4.7 km/h 9.7 km/h 62% 0.0 mm 186 W/m2
16:38 16 °C 8.5 °C 1012.5 hPa West 1.4 km/h 6.4 km/h 61% 0.0 mm 185 W/m2
16:43 16 °C 8.2 °C 1012.5 hPa WNW 1.4 km/h 4.8 km/h 60% 0.0 mm 146 W/m2
16:48 16 °C 8.5 °C 1012.5 hPa WNW 1.4 km/h 6.4 km/h 61% 0.0 mm 125 W/m2
16:53 16 °C 8.5 °C 1012.2 hPa WNW 4.7 km/h 4.8 km/h 61% 0.0 mm 139 W/m2
16:58 16 °C 8.5 °C 1012.2 hPa NW 1.4 km/h 4.8 km/h 61% 0.0 mm 155 W/m2
17:03 16.1 °C 8.8 °C 1012.2 hPa NW 4.7 km/h 9.7 km/h 62% 0.0 mm 118 W/m2
17:08 15.8 °C 8.3 °C 1012.2 hPa WNW 3.2 km/h 9.7 km/h 61% 0.0 mm 100 W/m2
17:13 15.7 °C 8.2 °C 1012.2 hPa West 11.1 km/h 12.9 km/h 61% 0.0 mm 139 W/m2
17:18 15.7 °C 8.4 °C 1012.2 hPa West 6.4 km/h 12.9 km/h 62% 0.0 mm 380 W/m2
17:23 15.8 °C 8.3 °C 1012.2 hPa WNW 4.7 km/h 11.3 km/h 61% 0.0 mm 120 W/m2
17:28 15.8 °C 8.5 °C 1012.2 hPa NW 1.4 km/h 4.8 km/h 62% 0.0 mm 86 W/m2
17:33 15.7 °C 8.4 °C 1012.2 hPa WNW 6.4 km/h 11.3 km/h 62% 0.0 mm 97 W/m2
17:38 15.7 °C 8.7 °C 1012.2 hPa WNW 4.7 km/h 8 km/h 63% 0.0 mm 111 W/m2
17:43 15.8 °C 8.8 °C 1012.2 hPa West 1.4 km/h 11.3 km/h 63% 0.0 mm 155 W/m2
17:48 15.9 °C 8.9 °C 1012.2 hPa WNW 3.2 km/h 9.7 km/h 63% 0.0 mm 104 W/m2
17:53 15.9 °C 8.4 °C 1012.2 hPa West 3.2 km/h 12.9 km/h 61% 0.0 mm 114 W/m2
17:58 15.8 °C 8.3 °C 1012.2 hPa WNW 4.7 km/h 6.4 km/h 61% 0.0 mm 47 W/m2
18:03 15.6 °C 8.3 °C 1012.2 hPa Calm   4.8 km/h 62% 0.0 mm 42 W/m2
18:08 15.6 °C 8.3 °C 1012.2 hPa NW 4.7 km/h 6.4 km/h 62% 0.0 mm 37 W/m2
18:13 15.4 °C 8.2 °C 1012.2 hPa ENE 1.4 km/h 6.4 km/h 62% 0.0 mm 40 W/m2
18:18 15.3 °C 8.3 °C 1012.2 hPa WNW 1.4 km/h 4.8 km/h 63% 0.0 mm 42 W/m2
18:23 15.2 °C 8.2 °C 1012.2 hPa WNW 4.7 km/h 6.4 km/h 63% 0.0 mm 46 W/m2
18:28 15.2 °C 8.2 °C 1012.2 hPa West 3.2 km/h 4.8 km/h 63% 0.0 mm 49 W/m2
18:33 15.1 °C 8.3 °C 1012.2 hPa WNW 3.2 km/h 6.4 km/h 64% 0.0 mm 46 W/m2
18:38 15 °C 8.2 °C 1012.2 hPa West 1.4 km/h 4.8 km/h 64% 0.0 mm 37 W/m2
18:43 14.9 °C 8.1 °C 1012.2 hPa Calm   4.8 km/h 64% 0.0 mm 33 W/m2
18:48 14.8 °C 8.3 °C 1012.2 hPa Calm   3.2 km/h 65% 0.0 mm 28 W/m2
18:53 14.7 °C 8.2 °C 1012.2 hPa West 1.4 km/h 3.2 km/h 65% 0.0 mm 23 W/m2
18:58 14.6 °C 8.1 °C 1012.2 hPa Calm   1.6 km/h 65% 0.0 mm 18 W/m2
19:03 14.4 °C 8.1 °C 1012.2 hPa West 1.4 km/h 4.8 km/h 66% 0.0 mm 12 W/m2
19:08 14.3 °C 8.3 °C 1012.2 hPa West 1.4 km/h 3.2 km/h 67% 0.0 mm 11 W/m2
19:13 14.2 °C 8.2 °C 1012.2 hPa West 3.2 km/h 4.8 km/h 67% 0.0 mm 9 W/m2
19:18 14.2 °C 8.2 °C 1012.2 hPa West 3.2 km/h 4.8 km/h 67% 0.0 mm 7 W/m2
19:23 14.2 °C 8.2 °C 1012.2 hPa West 1.4 km/h 3.2 km/h 67% 0.0 mm 5 W/m2
19:28 14.1 °C 8.1 °C 1012.2 hPa West 1.4 km/h 4.8 km/h 67% 0.0 mm 0 W/m2
19:33 14.1 °C 8.1 °C 1012.2 hPa West 1.4 km/h 4.8 km/h 67% 0.0 mm 0 W/m2
19:38 14.1 °C 7.8 °C 1012.2 hPa West 3.2 km/h 4.8 km/h 66% 0.0 mm 0 W/m2
19:43 14.1 °C 7.8 °C 1012.5 hPa WSW 1.4 km/h 3.2 km/h 66% 0.0 mm 0 W/m2
19:48 14.1 °C 7.8 °C 1012.5 hPa West 1.4 km/h 3.2 km/h 66% 0.0 mm 0 W/m2
19:53 14.1 °C 7.8 °C 1012.5 hPa West 1.4 km/h 3.2 km/h 66% 0.0 mm 0 W/m2
19:58 14 °C 7.7 °C 1012.5 hPa Calm   3.2 km/h 66% 0.0 mm 0 W/m2
20:03 13.9 °C 7.9 °C 1012.5 hPa West 1.4 km/h 1.6 km/h 67% 0.0 mm 0 W/m2
20:08 13.8 °C 7.8 °C 1012.5 hPa West 1.4 km/h 4.8 km/h 67% 0.0 mm 0 W/m2
20:13 13.8 °C 7.8 °C 1012.5 hPa West 1.4 km/h 1.6 km/h 67% 0.0 mm 0 W/m2
20:18 13.7 °C 7.7 °C 1012.5 hPa Calm   3.2 km/h 67% 0.0 mm 0 W/m2
20:23 13.6 °C 7.8 °C 1012.5 hPa Calm     68% 0.0 mm 0 W/m2
20:28 13.3 °C 7.7 °C 1012.5 hPa Calm   3.2 km/h 69% 0.0 mm 0 W/m2
20:33 13.1 °C 7.5 °C 1012.5 hPa Calm   1.6 km/h 69% 0.0 mm 0 W/m2
20:38 12.9 °C 7.6 °C 1012.5 hPa West 3.2 km/h 3.2 km/h 70% 0.0 mm 0 W/m2
20:43 12.8 °C 7.5 °C 1012.5 hPa West 1.4 km/h 1.6 km/h 70% 0.0 mm 0 W/m2
20:48 12.7 °C 7.4 °C 1012.9 hPa West 1.4 km/h 4.8 km/h 70% 0.0 mm 0 W/m2
20:53 12.7 °C 7.4 °C 1012.5 hPa West 3.2 km/h 4.8 km/h 70% 0.0 mm 0 W/m2
20:58 12.8 °C 7.5 °C 1012.9 hPa West 1.4 km/h 1.6 km/h 70% 0.0 mm 0 W/m2
21:03 12.7 °C 7.6 °C 1012.9 hPa Calm   4.8 km/h 71% 0.0 mm 0 W/m2
21:08 12.4 °C 7.5 °C 1012.9 hPa Calm     72% 0.0 mm 0 W/m2
21:13 12.3 °C 7.6 °C 1012.9 hPa Calm     73% 0.0 mm 0 W/m2
21:18 12 °C 7.3 °C 1012.9 hPa Calm   3.2 km/h 73% 0.0 mm 0 W/m2
21:23 11.8 °C 7.3 °C 1012.9 hPa West 1.4 km/h 1.6 km/h 74% 0.0 mm 0 W/m2
21:28 11.7 °C 7.2 °C 1012.9 hPa West 3.2 km/h 3.2 km/h 74% 0.0 mm 0 W/m2
21:33 11.4 °C 7.3 °C 1012.9 hPa West 1.4 km/h 1.6 km/h 76% 0.0 mm 0 W/m2
21:38 11.3 °C 7.4 °C 1012.9 hPa West 1.4 km/h 3.2 km/h 77% 0.0 mm 0 W/m2
21:43 11.1 °C 7.2 °C 1012.9 hPa Calm   1.6 km/h 77% 0.0 mm 0 W/m2
21:48 11 °C 7.3 °C 1012.9 hPa West 1.4 km/h 3.2 km/h 78% 0.0 mm 0 W/m2
21:53 10.9 °C 7.2 °C 1012.9 hPa West 1.4 km/h 4.8 km/h 78% 0.0 mm 0 W/m2
21:58 11 °C 7.3 °C 1012.9 hPa WSW 4.7 km/h 6.4 km/h 78% 0.0 mm 0 W/m2
22:03 11.3 °C 7.4 °C 1012.9 hPa Calm   1.6 km/h 77% 0.0 mm 0 W/m2
22:08 11.3 °C 7.4 °C 1012.9 hPa Calm   6.4 km/h 77% 0.0 mm 0 W/m2
22:13 11.3 °C 7.4 °C 1012.5 hPa WSW 1.4 km/h 1.6 km/h 77% 0.0 mm 0 W/m2
22:18 11.1 °C 7.4 °C 1012.5 hPa Calm     78% 0.0 mm 0 W/m2
22:23 10.9 °C 7.2 °C 1012.5 hPa Calm     78% 0.0 mm 0 W/m2
22:29 10.7 °C 7.2 °C 1012.5 hPa Calm     79% 0.0 mm 0 W/m2
22:34 10.5 °C 7.2 °C 1012.5 hPa Calm     80% 0.0 mm 0 W/m2
22:39 10.3 °C 7.2 °C 1012.5 hPa Calm     81% 0.0 mm 0 W/m2
22:44 10.2 °C 7.1 °C 1012.5 hPa Calm     81% 0.0 mm 0 W/m2
22:49 10 °C 7.1 °C 1012.5 hPa Calm     82% 0.0 mm 0 W/m2
22:54 9.8 °C 6.9 °C 1012.5 hPa Calm     82% 0.0 mm 0 W/m2
22:59 9.7 °C 7 °C 1012.5 hPa Calm     83% 0.0 mm 0 W/m2
23:04 9.5 °C 6.8 °C 1012.5 hPa Calm     83% 0.0 mm 0 W/m2
23:09 9.3 °C 6.7 °C 1012.5 hPa Calm     84% 0.0 mm 0 W/m2
23:14 9.2 °C 6.6 °C 1012.5 hPa Calm     84% 0.0 mm 0 W/m2
23:19 9.1 °C 6.7 °C 1012.5 hPa Calm     85% 0.0 mm 0 W/m2
23:24 8.9 °C 6.7 °C 1012.5 hPa Calm   3.2 km/h 86% 0.0 mm 0 W/m2
23:29 8.8 °C 6.6 °C 1012.5 hPa Calm   1.6 km/h 86% 0.0 mm 0 W/m2
23:34 8.8 °C 6.6 °C 1012.2 hPa Calm     86% 0.0 mm 0 W/m2
23:39 8.7 °C 6.7 °C 1012.2 hPa Calm   1.6 km/h 87% 0.0 mm 0 W/m2
23:44 8.6 °C 6.6 °C 1012.2 hPa Calm   1.6 km/h 87% 0.0 mm 0 W/m2
23:49 8.6 °C 6.6 °C 1012.2 hPa Calm     87% 0.0 mm 0 W/m2
23:54 8.5 °C 6.5 °C 1012.2 hPa WSW 1.4 km/h 1.6 km/h 87% 0.0 mm 0 W/m2
23:59 8.6 °C 6.7 °C 1012.2 hPa WNW 1.4 km/h 4.8 km/h 88% 0.0 mm 0 W/m2
Juneau County Weather
Compliments of Weather Underground - 4 mb